sensor_id;sensor_type;location;lat;lon;timestamp;temperature;humidity
27114;DHT22;14648;49.730;8.614;2023-01-26T00:01:24;2.60;62.70
27114;DHT22;14648;49.730;8.614;2023-01-26T00:03:55;2.60;62.60
27114;DHT22;14648;49.730;8.614;2023-01-26T00:06:22;2.60;62.50
27114;DHT22;14648;49.730;8.614;2023-01-26T00:08:51;2.60;62.50
27114;DHT22;14648;49.730;8.614;2023-01-26T00:11:21;2.60;62.60
27114;DHT22;14648;49.730;8.614;2023-01-26T00:13:57;2.60;62.50
27114;DHT22;14648;49.730;8.614;2023-01-26T00:16:25;2.60;62.60
27114;DHT22;14648;49.730;8.614;2023-01-26T00:18:51;2.60;62.60
27114;DHT22;14648;49.730;8.614;2023-01-26T00:21:20;2.60;62.60
27114;DHT22;14648;49.730;8.614;2023-01-26T00:23:48;2.60;62.60
27114;DHT22;14648;49.730;8.614;2023-01-26T00:26:17;2.60;62.60
27114;DHT22;14648;49.730;8.614;2023-01-26T00:28:52;2.60;62.60
27114;DHT22;14648;49.730;8.614;2023-01-26T00:31:21;2.50;62.70
27114;DHT22;14648;49.730;8.614;2023-01-26T00:33:49;2.60;62.60
27114;DHT22;14648;49.730;8.614;2023-01-26T00:36:15;2.60;62.70
27114;DHT22;14648;49.730;8.614;2023-01-26T00:38:41;2.50;62.70
27114;DHT22;14648;49.730;8.614;2023-01-26T00:41:07;2.60;62.70
27114;DHT22;14648;49.730;8.614;2023-01-26T00:43:33;2.50;62.70
27114;DHT22;14648;49.730;8.614;2023-01-26T00:45:59;2.60;62.70
27114;DHT22;14648;49.730;8.614;2023-01-26T00:48:24;2.60;62.70
27114;DHT22;14648;49.730;8.614;2023-01-26T00:50:51;2.60;62.80
27114;DHT22;14648;49.730;8.614;2023-01-26T00:53:17;2.60;62.80
27114;DHT22;14648;49.730;8.614;2023-01-26T00:55:42;2.60;62.90
27114;DHT22;14648;49.730;8.614;2023-01-26T00:58:09;2.50;62.90
27114;DHT22;14648;49.730;8.614;2023-01-26T01:00:36;2.60;62.90
27114;DHT22;14648;49.730;8.614;2023-01-26T01:03:04;2.50;63.10
27114;DHT22;14648;49.730;8.614;2023-01-26T01:05:31;2.50;63.10
27114;DHT22;14648;49.730;8.614;2023-01-26T01:07:57;2.60;63.00
27114;DHT22;14648;49.730;8.614;2023-01-26T01:10:23;2.60;63.00
27114;DHT22;14648;49.730;8.614;2023-01-26T01:12:51;2.60;63.00
27114;DHT22;14648;49.730;8.614;2023-01-26T01:15:17;2.60;63.00
27114;DHT22;14648;49.730;8.614;2023-01-26T01:17:42;2.60;63.00
27114;DHT22;14648;49.730;8.614;2023-01-26T01:20:09;2.60;63.10
27114;DHT22;14648;49.730;8.614;2023-01-26T01:22:36;2.60;63.00
27114;DHT22;14648;49.730;8.614;2023-01-26T01:25:03;2.50;62.90
27114;DHT22;14648;49.730;8.614;2023-01-26T01:27:29;2.50;63.10
27114;DHT22;14648;49.730;8.614;2023-01-26T01:29:54;2.50;63.00
27114;DHT22;14648;49.730;8.614;2023-01-26T01:32:20;2.60;63.00
27114;DHT22;14648;49.730;8.614;2023-01-26T01:34:47;2.50;62.90
27114;DHT22;14648;49.730;8.614;2023-01-26T01:37:13;2.50;63.00
27114;DHT22;14648;49.730;8.614;2023-01-26T01:39:40;2.40;62.90
27114;DHT22;14648;49.730;8.614;2023-01-26T01:42:06;2.40;63.10
27114;DHT22;14648;49.730;8.614;2023-01-26T01:44:37;2.40;63.10
27114;DHT22;14648;49.730;8.614;2023-01-26T01:47:08;2.40;63.10
27114;DHT22;14648;49.730;8.614;2023-01-26T01:49:49;2.40;63.10
27114;DHT22;14648;49.730;8.614;2023-01-26T01:52:20;2.40;63.10
27114;DHT22;14648;49.730;8.614;2023-01-26T01:54:55;2.40;63.10
27114;DHT22;14648;49.730;8.614;2023-01-26T01:57:31;2.40;63.10
27114;DHT22;14648;49.730;8.614;2023-01-26T02:00:11;2.30;63.00
27114;DHT22;14648;49.730;8.614;2023-01-26T02:02:40;2.30;63.00
27114;DHT22;14648;49.730;8.614;2023-01-26T02:05:23;2.30;63.10
27114;DHT22;14648;49.730;8.614;2023-01-26T02:07:52;2.30;63.20
27114;DHT22;14648;49.730;8.614;2023-01-26T02:10:19;2.30;63.20
27114;DHT22;14648;49.730;8.614;2023-01-26T02:12:49;2.30;63.20
27114;DHT22;14648;49.730;8.614;2023-01-26T02:15:16;2.30;63.20
27114;DHT22;14648;49.730;8.614;2023-01-26T02:17:42;2.30;63.20
27114;DHT22;14648;49.730;8.614;2023-01-26T02:26:17;2.20;63.10
27114;DHT22;14648;49.730;8.614;2023-01-26T02:28:45;2.20;63.00
27114;DHT22;14648;49.730;8.614;2023-01-26T02:31:12;2.10;63.10
27114;DHT22;14648;49.730;8.614;2023-01-26T02:33:39;2.10;63.20
27114;DHT22;14648;49.730;8.614;2023-01-26T02:36:06;2.10;63.20
27114;DHT22;14648;49.730;8.614;2023-01-26T02:41:49;2.10;63.40
27114;DHT22;14648;49.730;8.614;2023-01-26T02:44:34;2.10;63.40
27114;DHT22;14648;49.730;8.614;2023-01-26T02:47:10;2.20;63.30
27114;DHT22;14648;49.730;8.614;2023-01-26T02:49:36;2.20;63.30
27114;DHT22;14648;49.730;8.614;2023-01-26T02:52:11;2.20;63.30
27114;DHT22;14648;49.730;8.614;2023-01-26T02:54:41;2.20;63.30
27114;DHT22;14648;49.730;8.614;2023-01-26T02:57:25;2.20;63.20
27114;DHT22;14648;49.730;8.614;2023-01-26T02:59:51;2.20;63.30
27114;DHT22;14648;49.730;8.614;2023-01-26T03:02:17;2.20;63.30
27114;DHT22;14648;49.730;8.614;2023-01-26T03:04:43;2.10;63.30
27114;DHT22;14648;49.730;8.614;2023-01-26T03:07:09;2.10;63.30
27114;DHT22;14648;49.730;8.614;2023-01-26T03:09:35;2.10;63.30
27114;DHT22;14648;49.730;8.614;2023-01-26T03:12:01;2.10;63.40
27114;DHT22;14648;49.730;8.614;2023-01-26T03:14:28;2.10;63.40
27114;DHT22;14648;49.730;8.614;2023-01-26T03:16:53;2.00;63.50
27114;DHT22;14648;49.730;8.614;2023-01-26T03:19:20;2.10;63.50
27114;DHT22;14648;49.730;8.614;2023-01-26T03:22:04;2.10;63.50
27114;DHT22;14648;49.730;8.614;2023-01-26T03:24:51;2.00;63.50
27114;DHT22;14648;49.730;8.614;2023-01-26T03:27:46;2.00;63.50
27114;DHT22;14648;49.730;8.614;2023-01-26T03:30:15;2.00;63.50
27114;DHT22;14648;49.730;8.614;2023-01-26T03:32:42;2.00;63.50
27114;DHT22;14648;49.730;8.614;2023-01-26T03:35:09;2.10;63.70
27114;DHT22;14648;49.730;8.614;2023-01-26T03:37:43;2.10;63.70
27114;DHT22;14648;49.730;8.614;2023-01-26T03:40:10;2.10;63.70
27114;DHT22;14648;49.730;8.614;2023-01-26T03:42:55;2.10;63.70
27114;DHT22;14648;49.730;8.614;2023-01-26T03:45:40;2.10;63.70
27114;DHT22;14648;49.730;8.614;2023-01-26T03:48:25;2.10;63.70
27114;DHT22;14648;49.730;8.614;2023-01-26T03:51:09;2.10;63.70
27114;DHT22;14648;49.730;8.614;2023-01-26T03:53:53;2.20;63.60
27114;DHT22;14648;49.730;8.614;2023-01-26T03:56:37;2.20;63.70
27114;DHT22;14648;49.730;8.614;2023-01-26T03:59:06;2.20;63.70
27114;DHT22;14648;49.730;8.614;2023-01-26T04:01:40;2.20;63.70
27114;DHT22;14648;49.730;8.614;2023-01-26T04:04:27;2.20;63.70
27114;DHT22;14648;49.730;8.614;2023-01-26T04:07:11;2.20;63.80
27114;DHT22;14648;49.730;8.614;2023-01-26T04:09:56;2.20;63.70
27114;DHT22;14648;49.730;8.614;2023-01-26T04:12:21;2.20;64.50
27114;DHT22;14648;49.730;8.614;2023-01-26T04:14:51;2.30;63.80
27114;DHT22;14648;49.730;8.614;2023-01-26T04:17:35;2.30;64.60
27114;DHT22;14648;49.730;8.614;2023-01-26T04:20:19;2.30;63.80
27114;DHT22;14648;49.730;8.614;2023-01-26T04:23:03;2.30;63.80
27114;DHT22;14648;49.730;8.614;2023-01-26T04:25:29;2.30;63.80
27114;DHT22;14648;49.730;8.614;2023-01-26T04:27:54;2.30;63.80
27114;DHT22;14648;49.730;8.614;2023-01-26T04:30:20;2.40;63.80
27114;DHT22;14648;49.730;8.614;2023-01-26T04:32:46;2.40;63.70
27114;DHT22;14648;49.730;8.614;2023-01-26T04:35:12;2.40;63.80
27114;DHT22;14648;49.730;8.614;2023-01-26T04:37:38;2.40;63.80
27114;DHT22;14648;49.730;8.614;2023-01-26T04:40:05;2.40;63.80
27114;DHT22;14648;49.730;8.614;2023-01-26T04:42:32;2.40;64.50
27114;DHT22;14648;49.730;8.614;2023-01-26T04:44:58;2.40;63.80
27114;DHT22;14648;49.730;8.614;2023-01-26T04:47:24;2.40;63.80
27114;DHT22;14648;49.730;8.614;2023-01-26T04:49:49;2.40;63.90
27114;DHT22;14648;49.730;8.614;2023-01-26T04:52:15;2.40;63.90
27114;DHT22;14648;49.730;8.614;2023-01-26T04:54:41;2.40;63.90
27114;DHT22;14648;49.730;8.614;2023-01-26T04:57:07;2.40;63.80
27114;DHT22;14648;49.730;8.614;2023-01-26T04:59:33;2.40;63.80
27114;DHT22;14648;49.730;8.614;2023-01-26T05:01:59;2.40;63.70
27114;DHT22;14648;49.730;8.614;2023-01-26T05:04:25;2.40;63.70
27114;DHT22;14648;49.730;8.614;2023-01-26T05:06:51;2.40;63.80
27114;DHT22;14648;49.730;8.614;2023-01-26T05:09:16;2.30;63.80
27114;DHT22;14648;49.730;8.614;2023-01-26T05:11:44;2.30;63.80
27114;DHT22;14648;49.730;8.614;2023-01-26T05:14:10;2.20;63.80
27114;DHT22;14648;49.730;8.614;2023-01-26T05:16:36;2.20;63.80
27114;DHT22;14648;49.730;8.614;2023-01-26T05:19:01;2.20;63.90
27114;DHT22;14648;49.730;8.614;2023-01-26T05:21:27;2.20;63.90
27114;DHT22;14648;49.730;8.614;2023-01-26T05:23:53;2.20;63.80
27114;DHT22;14648;49.730;8.614;2023-01-26T05:26:19;2.10;63.90
27114;DHT22;14648;49.730;8.614;2023-01-26T05:28:45;2.10;64.00
27114;DHT22;14648;49.730;8.614;2023-01-26T05:31:11;2.10;64.00
27114;DHT22;14648;49.730;8.614;2023-01-26T05:33:36;2.10;64.10
27114;DHT22;14648;49.730;8.614;2023-01-26T05:36:04;2.10;64.80
27114;DHT22;14648;49.730;8.614;2023-01-26T05:38:31;2.10;63.90
27114;DHT22;14648;49.730;8.614;2023-01-26T05:40:57;2.00;63.90
27114;DHT22;14648;49.730;8.614;2023-01-26T05:43:23;2.00;63.90
27114;DHT22;14648;49.730;8.614;2023-01-26T05:45:49;2.00;64.00
27114;DHT22;14648;49.730;8.614;2023-01-26T05:48:15;2.00;64.00
27114;DHT22;14648;49.730;8.614;2023-01-26T05:50:41;2.00;64.00
27114;DHT22;14648;49.730;8.614;2023-01-26T05:53:06;2.00;64.10
27114;DHT22;14648;49.730;8.614;2023-01-26T05:55:32;2.00;64.20
27114;DHT22;14648;49.730;8.614;2023-01-26T05:57:57;1.90;64.20
27114;DHT22;14648;49.730;8.614;2023-01-26T06:00:23;2.00;64.20
27114;DHT22;14648;49.730;8.614;2023-01-26T06:02:49;2.00;64.20
27114;DHT22;14648;49.730;8.614;2023-01-26T06:05:15;2.00;64.20
27114;DHT22;14648;49.730;8.614;2023-01-26T06:07:41;2.00;64.10
27114;DHT22;14648;49.730;8.614;2023-01-26T06:10:07;2.00;64.20
27114;DHT22;14648;49.730;8.614;2023-01-26T06:12:33;2.00;64.10
27114;DHT22;14648;49.730;8.614;2023-01-26T06:15:04;2.00;64.10
27114;DHT22;14648;49.730;8.614;2023-01-26T06:17:31;2.00;64.20
27114;DHT22;14648;49.730;8.614;2023-01-26T06:19:56;2.00;64.20
27114;DHT22;14648;49.730;8.614;2023-01-26T06:22:22;1.90;64.20
27114;DHT22;14648;49.730;8.614;2023-01-26T06:24:48;1.90;64.20
27114;DHT22;14648;49.730;8.614;2023-01-26T06:27:15;1.90;64.30
27114;DHT22;14648;49.730;8.614;2023-01-26T06:29:43;1.90;64.40
27114;DHT22;14648;49.730;8.614;2023-01-26T06:32:13;1.90;64.40
27114;DHT22;14648;49.730;8.614;2023-01-26T06:34:42;2.00;64.40
27114;DHT22;14648;49.730;8.614;2023-01-26T06:37:08;1.90;64.30
27114;DHT22;14648;49.730;8.614;2023-01-26T06:39:34;1.90;64.30
27114;DHT22;14648;49.730;8.614;2023-01-26T06:42:00;1.90;64.40
27114;DHT22;14648;49.730;8.614;2023-01-26T06:44:26;1.90;64.50
27114;DHT22;14648;49.730;8.614;2023-01-26T06:46:51;1.90;64.40
27114;DHT22;14648;49.730;8.614;2023-01-26T06:49:18;1.90;64.50
27114;DHT22;14648;49.730;8.614;2023-01-26T06:54:36;1.90;64.50
27114;DHT22;14648;49.730;8.614;2023-01-26T06:57:02;1.90;64.60
27114;DHT22;14648;49.730;8.614;2023-01-26T06:59:28;1.90;64.50
27114;DHT22;14648;49.730;8.614;2023-01-26T07:01:53;1.90;64.60
27114;DHT22;14648;49.730;8.614;2023-01-26T07:04:19;1.90;64.60
27114;DHT22;14648;49.730;8.614;2023-01-26T07:06:44;1.90;64.60
27114;DHT22;14648;49.730;8.614;2023-01-26T07:09:10;1.90;64.60
27114;DHT22;14648;49.730;8.614;2023-01-26T07:11:36;2.00;64.60
27114;DHT22;14648;49.730;8.614;2023-01-26T07:14:02;2.00;64.60
27114;DHT22;14648;49.730;8.614;2023-01-26T07:16:28;2.00;64.50
27114;DHT22;14648;49.730;8.614;2023-01-26T07:18:54;2.00;64.60
27114;DHT22;14648;49.730;8.614;2023-01-26T07:21:20;2.00;64.60
27114;DHT22;14648;49.730;8.614;2023-01-26T07:23:47;2.00;64.60
27114;DHT22;14648;49.730;8.614;2023-01-26T07:26:14;2.00;64.70
27114;DHT22;14648;49.730;8.614;2023-01-26T07:28:40;2.00;64.70
27114;DHT22;14648;49.730;8.614;2023-01-26T07:31:07;2.00;64.70
27114;DHT22;14648;49.730;8.614;2023-01-26T07:33:34;2.00;64.70
27114;DHT22;14648;49.730;8.614;2023-01-26T07:36:00;2.00;64.90
27114;DHT22;14648;49.730;8.614;2023-01-26T07:38:27;2.00;64.80
27114;DHT22;14648;49.730;8.614;2023-01-26T07:40:56;2.00;64.70
27114;DHT22;14648;49.730;8.614;2023-01-26T07:43:22;2.00;64.80
27114;DHT22;14648;49.730;8.614;2023-01-26T07:45:50;2.00;64.70
27114;DHT22;14648;49.730;8.614;2023-01-26T07:48:18;2.00;64.70
27114;DHT22;14648;49.730;8.614;2023-01-26T07:50:44;1.90;64.70
27114;DHT22;14648;49.730;8.614;2023-01-26T07:53:12;1.90;64.70
27114;DHT22;14648;49.730;8.614;2023-01-26T07:55:40;1.90;64.80
27114;DHT22;14648;49.730;8.614;2023-01-26T07:58:08;1.90;64.90
27114;DHT22;14648;49.730;8.614;2023-01-26T08:00:35;1.90;64.80
27114;DHT22;14648;49.730;8.614;2023-01-26T08:03:00;1.90;64.70
27114;DHT22;14648;49.730;8.614;2023-01-26T08:05:26;1.90;64.80
27114;DHT22;14648;49.730;8.614;2023-01-26T08:07:52;1.90;64.80
27114;DHT22;14648;49.730;8.614;2023-01-26T08:10:19;1.90;64.80
27114;DHT22;14648;49.730;8.614;2023-01-26T08:12:45;1.90;64.80
27114;DHT22;14648;49.730;8.614;2023-01-26T08:15:11;1.90;64.80
27114;DHT22;14648;49.730;8.614;2023-01-26T08:17:36;1.90;64.80
27114;DHT22;14648;49.730;8.614;2023-01-26T08:20:03;1.90;64.80
27114;DHT22;14648;49.730;8.614;2023-01-26T08:22:29;1.90;64.90
27114;DHT22;14648;49.730;8.614;2023-01-26T08:24:54;2.00;64.80
27114;DHT22;14648;49.730;8.614;2023-01-26T08:27:20;2.00;64.80
27114;DHT22;14648;49.730;8.614;2023-01-26T08:29:47;2.00;64.70
27114;DHT22;14648;49.730;8.614;2023-01-26T08:32:13;2.00;64.60
27114;DHT22;14648;49.730;8.614;2023-01-26T08:34:38;2.00;64.60
27114;DHT22;14648;49.730;8.614;2023-01-26T08:37:04;2.00;64.70
27114;DHT22;14648;49.730;8.614;2023-01-26T08:39:30;1.90;64.70
27114;DHT22;14648;49.730;8.614;2023-01-26T08:41:55;2.00;64.70
27114;DHT22;14648;49.730;8.614;2023-01-26T08:44:21;1.90;64.60
27114;DHT22;14648;49.730;8.614;2023-01-26T08:46:47;1.90;64.70
27114;DHT22;14648;49.730;8.614;2023-01-26T08:49:13;1.90;64.70
27114;DHT22;14648;49.730;8.614;2023-01-26T08:51:38;1.90;64.80
27114;DHT22;14648;49.730;8.614;2023-01-26T08:54:05;1.90;64.80
27114;DHT22;14648;49.730;8.614;2023-01-26T08:56:32;2.00;64.80
27114;DHT22;14648;49.730;8.614;2023-01-26T08:58:59;2.00;64.80
27114;DHT22;14648;49.730;8.614;2023-01-26T09:01:25;2.00;64.70
27114;DHT22;14648;49.730;8.614;2023-01-26T09:03:52;2.00;64.70
27114;DHT22;14648;49.730;8.614;2023-01-26T09:06:19;2.00;64.70
27114;DHT22;14648;49.730;8.614;2023-01-26T09:08:45;2.00;64.70
27114;DHT22;14648;49.730;8.614;2023-01-26T09:11:11;2.00;64.70
27114;DHT22;14648;49.730;8.614;2023-01-26T09:13:37;2.00;64.60
27114;DHT22;14648;49.730;8.614;2023-01-26T09:16:06;2.00;64.60
27114;DHT22;14648;49.730;8.614;2023-01-26T09:18:37;2.00;64.50
27114;DHT22;14648;49.730;8.614;2023-01-26T09:21:08;2.00;64.50
27114;DHT22;14648;49.730;8.614;2023-01-26T09:23:34;2.00;64.60
27114;DHT22;14648;49.730;8.614;2023-01-26T09:26:01;1.90;64.70
27114;DHT22;14648;49.730;8.614;2023-01-26T09:28:27;2.00;64.60
27114;DHT22;14648;49.730;8.614;2023-01-26T09:30:53;2.00;64.50
27114;DHT22;14648;49.730;8.614;2023-01-26T09:33:19;2.00;64.40
27114;DHT22;14648;49.730;8.614;2023-01-26T09:35:48;2.00;64.50
27114;DHT22;14648;49.730;8.614;2023-01-26T09:38:14;2.00;64.60
27114;DHT22;14648;49.730;8.614;2023-01-26T09:49:24;1.90;64.50
27114;DHT22;14648;49.730;8.614;2023-01-26T09:51:58;1.90;64.40
27114;DHT22;14648;49.730;8.614;2023-01-26T09:54:46;1.90;64.50
27114;DHT22;14648;49.730;8.614;2023-01-26T09:57:16;1.90;64.40
27114;DHT22;14648;49.730;8.614;2023-01-26T10:00:19;1.90;64.40
27114;DHT22;14648;49.730;8.614;2023-01-26T10:03:02;1.90;64.40
27114;DHT22;14648;49.730;8.614;2023-01-26T10:05:57;1.80;64.20
27114;DHT22;14648;49.730;8.614;2023-01-26T10:08:29;1.80;64.20
27114;DHT22;14648;49.730;8.614;2023-01-26T10:10:59;1.80;64.10
27114;DHT22;14648;49.730;8.614;2023-01-26T10:13:29;1.80;64.30
27114;DHT22;14648;49.730;8.614;2023-01-26T10:16:13;1.80;64.30
27114;DHT22;14648;49.730;8.614;2023-01-26T10:18:53;1.80;64.30
27114;DHT22;14648;49.730;8.614;2023-01-26T10:21:25;1.80;64.40
27114;DHT22;14648;49.730;8.614;2023-01-26T10:23:58;1.80;64.30
27114;DHT22;14648;49.730;8.614;2023-01-26T10:26:29;1.80;64.20
27114;DHT22;14648;49.730;8.614;2023-01-26T10:28:56;1.80;64.30
27114;DHT22;14648;49.730;8.614;2023-01-26T10:31:29;1.80;64.30
27114;DHT22;14648;49.730;8.614;2023-01-26T10:34:08;1.80;64.20
27114;DHT22;14648;49.730;8.614;2023-01-26T10:36:39;1.80;64.20
27114;DHT22;14648;49.730;8.614;2023-01-26T10:39:07;1.80;64.20
27114;DHT22;14648;49.730;8.614;2023-01-26T10:41:34;1.70;64.30
27114;DHT22;14648;49.730;8.614;2023-01-26T10:44:02;1.80;64.40
27114;DHT22;14648;49.730;8.614;2023-01-26T10:46:35;1.80;64.20
27114;DHT22;14648;49.730;8.614;2023-01-26T10:51:36;1.80;64.20
27114;DHT22;14648;49.730;8.614;2023-01-26T10:54:22;1.80;64.10
27114;DHT22;14648;49.730;8.614;2023-01-26T10:56:57;1.80;64.20
27114;DHT22;14648;49.730;8.614;2023-01-26T10:59:37;1.80;64.20
27114;DHT22;14648;49.730;8.614;2023-01-26T11:04:39;1.80;64.30
27114;DHT22;14648;49.730;8.614;2023-01-26T11:07:24;1.80;64.20
27114;DHT22;14648;49.730;8.614;2023-01-26T11:09:52;1.80;64.00
27114;DHT22;14648;49.730;8.614;2023-01-26T11:12:19;1.70;64.00
27114;DHT22;14648;49.730;8.614;2023-01-26T11:15:03;1.70;64.00
27114;DHT22;14648;49.730;8.614;2023-01-26T11:17:42;1.70;64.00
27114;DHT22;14648;49.730;8.614;2023-01-26T11:31:40;1.70;63.90
27114;DHT22;14648;49.730;8.614;2023-01-26T11:43:26;1.70;63.60
27114;DHT22;14648;49.730;8.614;2023-01-26T11:52:19;1.70;63.40
27114;DHT22;14648;49.730;8.614;2023-01-26T11:55:17;1.70;63.40
27114;DHT22;14648;49.730;8.614;2023-01-26T12:00:55;1.70;63.40
27114;DHT22;14648;49.730;8.614;2023-01-26T12:03:31;1.70;63.30
27114;DHT22;14648;49.730;8.614;2023-01-26T12:06:04;1.70;63.30
27114;DHT22;14648;49.730;8.614;2023-01-26T12:14:37;1.80;63.10
27114;DHT22;14648;49.730;8.614;2023-01-26T12:22:47;1.80;63.00
27114;DHT22;14648;49.730;8.614;2023-01-26T12:26:00;1.80;63.00
27114;DHT22;14648;49.730;8.614;2023-01-26T12:31:21;1.80;63.00
27114;DHT22;14648;49.730;8.614;2023-01-26T12:33:54;1.80;63.00
27114;DHT22;14648;49.730;8.614;2023-01-26T12:36:47;1.80;63.00
27114;DHT22;14648;49.730;8.614;2023-01-26T12:39:44;1.80;62.90
27114;DHT22;14648;49.730;8.614;2023-01-26T12:42:23;1.80;62.90
27114;DHT22;14648;49.730;8.614;2023-01-26T12:45:19;1.80;62.80
27114;DHT22;14648;49.730;8.614;2023-01-26T12:47:51;1.80;62.80
27114;DHT22;14648;49.730;8.614;2023-01-26T12:53:05;1.80;62.80
27114;DHT22;14648;49.730;8.614;2023-01-26T12:55:52;1.90;62.70
27114;DHT22;14648;49.730;8.614;2023-01-26T12:58:24;1.80;62.40
27114;DHT22;14648;49.730;8.614;2023-01-26T13:01:04;1.90;62.50
27114;DHT22;14648;49.730;8.614;2023-01-26T13:04:07;1.80;62.40
27114;DHT22;14648;49.730;8.614;2023-01-26T13:06:34;1.90;62.60
27114;DHT22;14648;49.730;8.614;2023-01-26T13:09:22;1.90;62.60
27114;DHT22;14648;49.730;8.614;2023-01-26T13:11:59;2.00;62.50
27114;DHT22;14648;49.730;8.614;2023-01-26T13:24:57;2.10;62.50
27114;DHT22;14648;49.730;8.614;2023-01-26T13:27:54;2.20;62.50
27114;DHT22;14648;49.730;8.614;2023-01-26T13:32:52;2.10;62.30
27114;DHT22;14648;49.730;8.614;2023-01-26T13:35:26;2.20;62.30
27114;DHT22;14648;49.730;8.614;2023-01-26T13:38:25;2.20;62.00
27114;DHT22;14648;49.730;8.614;2023-01-26T13:40:53;2.10;61.90
27114;DHT22;14648;49.730;8.614;2023-01-26T13:43:28;2.10;61.90
27114;DHT22;14648;49.730;8.614;2023-01-26T13:48:51;2.10;62.00
27114;DHT22;14648;49.730;8.614;2023-01-26T13:51:30;2.10;62.00
27114;DHT22;14648;49.730;8.614;2023-01-26T13:56:27;2.10;61.70
27114;DHT22;14648;49.730;8.614;2023-01-26T13:59:08;2.20;61.70
27114;DHT22;14648;49.730;8.614;2023-01-26T14:01:52;2.10;61.60
27114;DHT22;14648;49.730;8.614;2023-01-26T14:04:30;2.10;61.50
27114;DHT22;14648;49.730;8.614;2023-01-26T14:07:12;2.10;61.40
27114;DHT22;14648;49.730;8.614;2023-01-26T14:09:51;2.10;61.50
27114;DHT22;14648;49.730;8.614;2023-01-26T14:12:34;2.10;61.30
27114;DHT22;14648;49.730;8.614;2023-01-26T14:18:00;2.10;61.30
27114;DHT22;14648;49.730;8.614;2023-01-26T14:20:32;2.00;61.20
27114;DHT22;14648;49.730;8.614;2023-01-26T14:23:14;2.10;61.20
27114;DHT22;14648;49.730;8.614;2023-01-26T14:25:58;2.10;61.10
27114;DHT22;14648;49.730;8.614;2023-01-26T14:28:30;2.10;61.00
27114;DHT22;14648;49.730;8.614;2023-01-26T14:33:46;2.00;60.90
27114;DHT22;14648;49.730;8.614;2023-01-26T14:36:19;2.00;60.70
27114;DHT22;14648;49.730;8.614;2023-01-26T14:38:49;2.00;60.60
27114;DHT22;14648;49.730;8.614;2023-01-26T14:41:25;2.00;60.60
27114;DHT22;14648;49.730;8.614;2023-01-26T14:43:54;2.00;60.70
27114;DHT22;14648;49.730;8.614;2023-01-26T14:49:42;1.90;60.40
27114;DHT22;14648;49.730;8.614;2023-01-26T14:52:17;1.80;60.30
27114;DHT22;14648;49.730;8.614;2023-01-26T14:55:02;1.80;60.30
27114;DHT22;14648;49.730;8.614;2023-01-26T14:57:31;1.80;60.20
27114;DHT22;14648;49.730;8.614;2023-01-26T14:59:58;1.80;60.10
27114;DHT22;14648;49.730;8.614;2023-01-26T15:02:41;1.80;60.00
27114;DHT22;14648;49.730;8.614;2023-01-26T15:07:50;1.80;60.00
27114;DHT22;14648;49.730;8.614;2023-01-26T15:13:01;1.80;59.80
27114;DHT22;14648;49.730;8.614;2023-01-26T15:15:32;1.80;59.90
27114;DHT22;14648;49.730;8.614;2023-01-26T15:20:55;1.90;59.90
27114;DHT22;14648;49.730;8.614;2023-01-26T15:23:34;1.90;59.80
27114;DHT22;14648;49.730;8.614;2023-01-26T15:26:28;1.90;59.80
27114;DHT22;14648;49.730;8.614;2023-01-26T15:29:03;1.80;59.70
27114;DHT22;14648;49.730;8.614;2023-01-26T15:31:38;1.90;59.70
27114;DHT22;14648;49.730;8.614;2023-01-26T15:34:33;1.90;59.70
27114;DHT22;14648;49.730;8.614;2023-01-26T15:39:54;1.90;59.50
27114;DHT22;14648;49.730;8.614;2023-01-26T15:42:24;1.90;59.60
27114;DHT22;14648;49.730;8.614;2023-01-26T15:44:56;1.90;59.60
27114;DHT22;14648;49.730;8.614;2023-01-26T15:47:22;1.90;59.50
27114;DHT22;14648;49.730;8.614;2023-01-26T15:49:48;1.90;59.40
27114;DHT22;14648;49.730;8.614;2023-01-26T15:52:19;1.80;59.30
27114;DHT22;14648;49.730;8.614;2023-01-26T15:54:49;1.80;59.20
27114;DHT22;14648;49.730;8.614;2023-01-26T15:57:16;1.80;59.20
27114;DHT22;14648;49.730;8.614;2023-01-26T15:59:42;1.80;59.20
27114;DHT22;14648;49.730;8.614;2023-01-26T16:02:13;1.80;59.10
27114;DHT22;14648;49.730;8.614;2023-01-26T16:04:41;1.80;59.10
27114;DHT22;14648;49.730;8.614;2023-01-26T16:07:12;1.70;59.10
27114;DHT22;14648;49.730;8.614;2023-01-26T16:09:39;1.70;59.20
27114;DHT22;14648;49.730;8.614;2023-01-26T16:12:13;1.70;59.10
27114;DHT22;14648;49.730;8.614;2023-01-26T16:14:40;1.70;59.10
27114;DHT22;14648;49.730;8.614;2023-01-26T16:17:16;1.60;59.00
27114;DHT22;14648;49.730;8.614;2023-01-26T16:19:43;1.60;59.00
27114;DHT22;14648;49.730;8.614;2023-01-26T16:22:11;1.70;59.10
27114;DHT22;14648;49.730;8.614;2023-01-26T16:24:38;1.60;59.00
27114;DHT22;14648;49.730;8.614;2023-01-26T16:27:05;1.70;59.10
27114;DHT22;14648;49.730;8.614;2023-01-26T16:29:31;1.70;59.00
27114;DHT22;14648;49.730;8.614;2023-01-26T16:31:58;1.70;59.10
27114;DHT22;14648;49.730;8.614;2023-01-26T16:34:25;1.70;59.10
27114;DHT22;14648;49.730;8.614;2023-01-26T16:36:52;1.70;59.10
27114;DHT22;14648;49.730;8.614;2023-01-26T16:39:17;1.70;59.00
27114;DHT22;14648;49.730;8.614;2023-01-26T16:41:44;1.70;59.00
27114;DHT22;14648;49.730;8.614;2023-01-26T16:44:14;1.70;59.00
27114;DHT22;14648;49.730;8.614;2023-01-26T16:46:41;1.70;59.00
27114;DHT22;14648;49.730;8.614;2023-01-26T16:49:13;1.70;59.00
27114;DHT22;14648;49.730;8.614;2023-01-26T16:51:42;1.70;59.00
27114;DHT22;14648;49.730;8.614;2023-01-26T16:54:09;1.70;59.00
27114;DHT22;14648;49.730;8.614;2023-01-26T16:56:36;1.70;59.00
27114;DHT22;14648;49.730;8.614;2023-01-26T16:59:02;1.70;59.00
27114;DHT22;14648;49.730;8.614;2023-01-26T17:01:37;1.70;58.90
27114;DHT22;14648;49.730;8.614;2023-01-26T17:04:04;1.70;58.90
27114;DHT22;14648;49.730;8.614;2023-01-26T17:06:32;1.70;58.90
27114;DHT22;14648;49.730;8.614;2023-01-26T17:08:57;1.70;59.00
27114;DHT22;14648;49.730;8.614;2023-01-26T17:11:26;1.70;58.90
27114;DHT22;14648;49.730;8.614;2023-01-26T17:13:53;1.70;59.00
27114;DHT22;14648;49.730;8.614;2023-01-26T17:16:23;1.70;59.00
27114;DHT22;14648;49.730;8.614;2023-01-26T17:18:51;1.70;59.40
27114;DHT22;14648;49.730;8.614;2023-01-26T17:21:18;1.70;58.90
27114;DHT22;14648;49.730;8.614;2023-01-26T17:23:53;1.70;58.90
27114;DHT22;14648;49.730;8.614;2023-01-26T17:26:21;1.80;58.90
27114;DHT22;14648;49.730;8.614;2023-01-26T17:28:49;1.80;58.90
27114;DHT22;14648;49.730;8.614;2023-01-26T17:31:18;1.80;58.90
27114;DHT22;14648;49.730;8.614;2023-01-26T17:33:46;1.80;58.90
27114;DHT22;14648;49.730;8.614;2023-01-26T17:36:16;1.80;58.80
27114;DHT22;14648;49.730;8.614;2023-01-26T17:38:43;1.80;58.90
27114;DHT22;14648;49.730;8.614;2023-01-26T17:41:09;1.80;58.90
27114;DHT22;14648;49.730;8.614;2023-01-26T17:43:34;1.80;58.90
27114;DHT22;14648;49.730;8.614;2023-01-26T17:46:12;1.80;58.80
27114;DHT22;14648;49.730;8.614;2023-01-26T17:48:39;1.80;58.70
27114;DHT22;14648;49.730;8.614;2023-01-26T17:51:07;1.80;58.80
27114;DHT22;14648;49.730;8.614;2023-01-26T17:53:41;1.80;58.80
27114;DHT22;14648;49.730;8.614;2023-01-26T17:56:13;1.80;58.90
27114;DHT22;14648;49.730;8.614;2023-01-26T17:58:41;1.80;58.90